Time;durP1;ratioP1;P1;durP2;ratioP2;P2;SDS_P1;SDS_P2;PMS_P1;PMS_P2;Temp;Humidity;BMP_temperature;BMP_pressure;BME280_temperature;BME280_humidity;BME280_pressure;Samples;Min_cycle;Max_cycle;Signal;HPM_P1;HPM_P2
2021/05/27 00:00:45;;;;;;;4.73;4.20;;;11.60;99.90;;;;;;5000675;28;20300;-65
2021/05/27 00:03:11;;;;;;;5.80;4.00;;;11.50;99.90;;;;;;4998712;28;21283;-65
2021/05/27 00:05:37;;;;;;;4.03;3.73;;;11.50;99.90;;;;;;5009268;28;20607;-65
2021/05/27 00:08:05;;;;;;;4.27;3.27;;;11.50;99.90;;;;;;4990621;28;20185;-66
2021/05/27 00:10:32;;;;;;;4.10;3.30;;;11.50;99.90;;;;;;5012920;28;20319;-66
2021/05/27 00:12:58;;;;;;;4.03;3.47;;;11.50;99.90;;;;;;5006519;28;20623;-65
2021/05/27 00:15:26;;;;;;;4.43;3.97;;;11.50;99.90;;;;;;5004690;28;20655;-66
2021/05/27 00:17:52;;;;;;;5.23;4.17;;;11.50;99.90;;;;;;4984394;28;20635;-66
2021/05/27 00:20:21;;;;;;;4.27;3.87;;;11.50;99.90;;;;;;5010108;28;20651;-66
2021/05/27 00:22:47;;;;;;;4.90;4.00;;;11.50;99.90;;;;;;5013972;28;20638;-66
2021/05/27 00:25:14;;;;;;;4.47;4.07;;;11.50;99.90;;;;;;4988294;28;20662;-66
2021/05/27 00:27:41;;;;;;;3.97;3.67;;;11.50;99.90;;;;;;5016739;28;20721;-66
2021/05/27 00:30:10;;;;;;;4.77;4.03;;;11.50;99.90;;;;;;5011248;28;21303;-68
2021/05/27 00:32:37;;;;;;;5.23;4.17;;;11.50;99.90;;;;;;5011810;28;20655;-66
2021/05/27 00:35:06;;;;;;;5.10;4.70;;;11.40;99.90;;;;;;5013425;28;20632;-66
2021/05/27 00:37:32;;;;;;;4.50;4.10;;;11.40;99.90;;;;;;5013565;28;20622;-67
2021/05/27 00:39:58;;;;;;;6.90;4.10;;;11.40;99.90;;;;;;5020063;28;20639;-66
2021/05/27 00:42:23;;;;;;;6.90;5.00;;;11.40;99.90;;;;;;5014430;28;20196;-66
2021/05/27 00:45:11;;;;;;;4.80;4.37;;;11.30;99.90;;;;;;4989361;28;20227;-66
2021/05/27 00:47:38;;;;;;;5.90;4.90;;;11.30;99.90;;;;;;5009800;28;20511;-66
2021/05/27 00:50:06;;;;;;;6.00;4.60;;;11.30;99.90;;;;;;5016466;28;21143;-66
2021/05/27 00:52:39;;;;;;;5.07;4.57;;;11.30;99.90;;;;;;5017238;28;20651;-65
2021/05/27 00:55:05;;;;;;;5.37;4.70;;;11.30;99.90;;;;;;4999769;28;20643;-66
2021/05/27 00:57:36;;;;;;;5.67;5.17;;;11.30;99.90;;;;;;4996112;28;20615;-66
2021/05/27 01:00:06;;;;;;;5.63;5.13;;;11.30;99.90;;;;;;5017070;28;20647;-66
2021/05/27 01:02:31;;;;;;;6.77;4.87;;;11.30;99.90;;;;;;5014743;28;20723;-66
2021/05/27 01:04:57;;;;;;;9.87;5.23;;;11.30;99.90;;;;;;5011436;28;20628;-66
2021/05/27 01:07:23;;;;;;;6.00;4.63;;;11.30;99.90;;;;;;5021375;28;20247;-66
2021/05/27 01:09:49;;;;;;;5.63;5.07;;;11.30;99.90;;;;;;4989934;28;21120;-66
2021/05/27 01:12:15;;;;;;;5.13;4.67;;;11.30;99.90;;;;;;5012238;28;21080;-66
2021/05/27 01:17:25;;;;;;;5.30;4.47;;;11.20;99.90;;;;;;5015566;28;20308;-66
2021/05/27 01:19:52;;;;;;;4.93;4.43;;;11.20;99.90;;;;;;4993631;28;20753;-66
2021/05/27 01:22:21;;;;;;;4.87;4.47;;;11.20;99.90;;;;;;5020453;28;20192;-66
2021/05/27 01:24:51;;;;;;;5.67;4.23;;;11.20;99.90;;;;;;5013518;28;20646;-66
2021/05/27 01:27:18;;;;;;;6.97;4.60;;;11.20;99.90;;;;;;4998845;28;20619;-66
2021/05/27 01:29:50;;;;;;;6.33;4.20;;;11.20;99.90;;;;;;5019314;28;20651;-66
2021/05/27 01:32:15;;;;;;;6.20;4.80;;;11.20;99.90;;;;;;5011800;28;20659;-65
2021/05/27 01:34:41;;;;;;;5.27;4.33;;;11.20;99.90;;;;;;5010414;28;20638;-66
2021/05/27 01:37:09;;;;;;;5.17;4.37;;;11.10;99.90;;;;;;5017076;28;20239;-65
2021/05/27 01:39:37;;;;;;;5.37;4.20;;;11.20;99.90;;;;;;4991809;28;20209;-66
2021/05/27 01:42:03;;;;;;;4.50;3.60;;;11.10;99.90;;;;;;5012989;28;20615;-65
2021/05/27 01:44:31;;;;;;;4.40;4.00;;;11.10;99.90;;;;;;5008687;28;20682;-66
2021/05/27 01:46:56;;;;;;;6.00;4.30;;;11.10;99.90;;;;;;4996916;28;20619;-66
2021/05/27 01:49:24;;;;;;;4.80;4.40;;;11.10;99.90;;;;;;5018166;28;20661;-66
2021/05/27 01:51:51;;;;;;;4.53;4.17;;;11.20;99.90;;;;;;5015000;28;20579;-66
2021/05/27 01:54:17;;;;;;;5.70;5.03;;;11.20;99.90;;;;;;5003594;28;21276;-66
2021/05/27 01:56:43;;;;;;;5.60;5.10;;;11.20;99.90;;;;;;4996167;28;20633;-66
2021/05/27 01:59:09;;;;;;;4.80;4.30;;;11.20;99.90;;;;;;5012868;28;20653;-66
2021/05/27 02:01:35;;;;;;;4.80;4.33;;;11.20;99.90;;;;;;5010853;28;21186;-66
2021/05/27 02:04:01;;;;;;;4.37;3.97;;;11.20;99.90;;;;;;5020136;28;20639;-66
2021/05/27 02:06:26;;;;;;;7.07;4.23;;;11.20;99.90;;;;;;4993734;28;20669;-66
2021/05/27 02:09:08;;;;;;;6.70;4.07;;;11.20;99.90;;;;;;5011156;28;20217;-65
2021/05/27 02:11:35;;;;;;;4.80;4.30;;;11.20;99.90;;;;;;5022379;28;20221;-66
2021/05/27 02:14:01;;;;;;;5.97;4.47;;;11.10;99.90;;;;;;5011579;28;20638;-66
2021/05/27 02:16:27;;;;;;;5.27;4.50;;;11.10;99.90;;;;;;4998928;28;20615;-66
2021/05/27 02:18:53;;;;;;;4.73;4.10;;;11.10;99.90;;;;;;4996833;28;21016;-65
2021/05/27 02:21:21;;;;;;;6.83;4.20;;;11.10;99.90;;;;;;4992913;28;20208;-66
2021/05/27 02:23:46;;;;;;;4.90;3.60;;;11.10;99.90;;;;;;5015285;28;20217;-66
2021/05/27 02:26:14;;;;;;;4.87;3.87;;;11.10;99.90;;;;;;4989744;28;20616;-66
2021/05/27 02:28:39;;;;;;;8.80;4.03;;;11.20;99.90;;;;;;5014910;28;20259;-66
2021/05/27 02:31:05;;;;;;;5.37;3.60;;;11.10;99.90;;;;;;5015825;28;20654;-66
2021/05/27 02:33:31;;;;;;;3.50;3.20;;;11.20;99.90;;;;;;5015607;28;20220;-65
2021/05/27 02:35:57;;;;;;;5.20;3.83;;;11.10;99.90;;;;;;5020246;28;21013;-67
2021/05/27 02:38:25;;;;;;;3.60;3.30;;;11.10;99.90;;;;;;4997436;28;20658;-65
2021/05/27 02:40:51;;;;;;;4.10;3.67;;;11.10;99.90;;;;;;4998674;28;20208;-66
2021/05/27 02:43:17;;;;;;;3.97;3.53;;;11.10;99.90;;;;;;5016769;28;20627;-66
2021/05/27 02:45:47;;;;;;;3.90;2.83;;;11.00;99.90;;;;;;4991132;28;20235;-66
2021/05/27 02:48:15;;;;;;;3.73;3.00;;;11.00;99.90;;;;;;4996614;28;20235;-65
2021/05/27 02:50:41;;;;;;;3.33;3.03;;;11.00;99.90;;;;;;5009953;28;20697;-66
2021/05/27 02:53:06;;;;;;;3.13;2.93;;;11.10;99.90;;;;;;5014048;28;20786;-66
2021/05/27 02:55:32;;;;;;;3.23;2.73;;;11.10;99.90;;;;;;5017651;28;20249;-66
2021/05/27 02:57:58;;;;;;;3.93;2.80;;;11.00;99.90;;;;;;5013922;28;20276;-66
2021/05/27 03:00:23;;;;;;;4.47;2.70;;;10.90;99.90;;;;;;4994548;28;20295;-66
2021/05/27 03:02:49;;;;;;;2.37;2.17;;;10.90;99.90;;;;;;5010243;28;20185;-65
2021/05/27 03:05:17;;;;;;;3.67;3.00;;;10.90;99.90;;;;;;5008647;28;20201;-66
2021/05/27 03:07:42;;;;;;;4.17;1.97;;;10.80;99.90;;;;;;5002411;28;20214;-66
2021/05/27 03:10:08;;;;;;;5.10;2.43;;;10.80;99.90;;;;;;4996174;28;21218;-66
2021/05/27 03:12:37;;;;;;;3.17;2.00;;;10.80;99.90;;;;;;4999177;28;20220;-66
2021/05/27 03:15:06;;;;;;;5.17;2.20;;;10.80;99.90;;;;;;4998316;28;20650;-65
2021/05/27 03:17:32;;;;;;;2.00;1.80;;;10.80;99.90;;;;;;5001147;28;20614;-66
2021/05/27 03:19:57;;;;;;;2.13;2.00;;;10.80;99.90;;;;;;4987612;28;20639;-66
2021/05/27 03:22:23;;;;;;;3.10;2.10;;;10.80;99.90;;;;;;4992751;28;20658;-66
2021/05/27 03:24:49;;;;;;;2.00;1.73;;;10.80;99.90;;;;;;5000479;28;22534;-66
2021/05/27 03:27:14;;;;;;;2.00;1.70;;;10.80;99.90;;;;;;5016651;28;20568;-66
2021/05/27 03:29:40;;;;;;;2.13;1.80;;;10.80;99.90;;;;;;5013586;28;20560;-66
2021/05/27 03:32:06;;;;;;;2.33;1.60;;;10.70;99.90;;;;;;5016731;28;20219;-66
2021/05/27 03:34:32;;;;;;;2.20;1.73;;;10.70;99.90;;;;;;5013079;28;20351;-66
2021/05/27 03:36:58;;;;;;;2.40;1.40;;;10.70;99.90;;;;;;5011827;28;20197;-66
2021/05/27 03:39:24;;;;;;;1.57;1.40;;;10.60;99.90;;;;;;5016439;28;20999;-66
2021/05/27 03:41:49;;;;;;;1.40;1.30;;;10.60;99.90;;;;;;5016504;28;20196;-66
2021/05/27 03:44:15;;;;;;;1.63;1.53;;;10.60;99.90;;;;;;4999759;28;20606;-66
2021/05/27 03:46:41;;;;;;;1.87;1.47;;;10.60;99.90;;;;;;5002060;28;20676;-64
2021/05/27 03:49:06;;;;;;;3.17;1.43;;;10.50;99.90;;;;;;5017002;28;20219;-66
2021/05/27 03:51:34;;;;;;;2.47;1.53;;;10.50;99.90;;;;;;4998308;28;20597;-66
2021/05/27 03:54:02;;;;;;;3.67;1.80;;;10.40;99.90;;;;;;5018313;28;20279;-66
2021/05/27 03:56:33;;;;;;;2.30;2.10;;;10.50;99.90;;;;;;5017236;28;20656;-66
2021/05/27 04:01:48;;;;;;;2.10;2.00;;;10.50;99.90;;;;;;5017339;28;20722;-66
2021/05/27 04:07:10;;;;;;;3.63;2.50;;;10.50;99.90;;;;;;5011714;28;21352;-65
2021/05/27 04:09:42;;;;;;;3.23;3.03;;;10.40;99.90;;;;;;5015395;28;21217;-66
2021/05/27 04:17:41;;;;;;;5.30;3.03;;;10.40;99.90;;;;;;5015905;28;20610;-66
2021/05/27 04:20:10;;;;;;;3.47;3.10;;;10.40;99.90;;;;;;5017886;28;20741;-66
2021/05/27 04:22:38;;;;;;;4.50;2.80;;;10.40;99.90;;;;;;5017840;28;20625;-66
2021/05/27 04:25:04;;;;;;;2.90;2.70;;;10.40;99.90;;;;;;4992750;28;20643;-65
2021/05/27 04:27:30;;;;;;;6.67;3.07;;;10.50;99.90;;;;;;5009362;28;20654;-66
2021/05/27 04:30:12;;;;;;;3.90;3.33;;;10.40;99.90;;;;;;5018014;28;20641;-65
2021/05/27 04:32:58;;;;;;;3.70;3.40;;;10.40;99.90;;;;;;5013060;28;20208;-66
2021/05/27 04:35:35;;;;;;;3.70;3.40;;;10.50;99.90;;;;;;5018222;28;20730;-66
2021/05/27 04:38:13;;;;;;;5.73;3.83;;;10.50;99.90;;;;;;5001347;28;20715;-66
2021/05/27 04:40:42;;;;;;;3.53;2.90;;;10.50;99.90;;;;;;5017814;28;20618;-66
2021/05/27 04:43:08;;;;;;;4.47;3.73;;;10.60;99.90;;;;;;5019349;28;21048;-66
2021/05/27 04:45:34;;;;;;;4.03;3.63;;;10.60;99.90;;;;;;5014392;28;20651;-66
2021/05/27 04:48:03;;;;;;;4.70;3.63;;;10.60;99.90;;;;;;4990387;28;21194;-66
2021/05/27 04:50:29;;;;;;;3.60;3.30;;;10.60;99.90;;;;;;4993516;28;20685;-66
2021/05/27 04:52:58;;;;;;;4.00;3.60;;;10.60;99.90;;;;;;4981671;28;20651;-66
2021/05/27 04:55:26;;;;;;;3.77;3.37;;;10.70;99.90;;;;;;5019127;28;20180;-67
2021/05/27 04:57:54;;;;;;;5.60;3.40;;;10.70;99.90;;;;;;4992103;28;21384;-66
2021/05/27 05:00:23;;;;;;;4.97;3.53;;;10.70;99.90;;;;;;4994695;28;20752;-65
2021/05/27 05:02:49;;;;;;;7.43;3.73;;;10.70;99.90;;;;;;5014635;28;20623;-66
2021/05/27 05:05:15;;;;;;;4.30;3.90;;;10.70;99.90;;;;;;4995750;28;20651;-67
2021/05/27 05:07:44;;;;;;;6.00;3.70;;;10.70;99.90;;;;;;5010218;28;20623;-67
2021/05/27 05:10:12;;;;;;;4.93;3.60;;;10.70;99.90;;;;;;5013861;28;20775;-68
2021/05/27 05:12:47;;;;;;;4.90;3.50;;;10.70;99.90;;;;;;5005783;28;20814;-67
2021/05/27 05:15:20;;;;;;;4.50;3.87;;;10.70;99.90;;;;;;5010016;28;20654;-67
2021/05/27 05:17:50;;;;;;;4.30;3.60;;;10.70;99.90;;;;;;4993100;28;20613;-66
2021/05/27 05:20:23;;;;;;;3.93;3.43;;;10.70;99.90;;;;;;4990305;28;20643;-67
2021/05/27 05:22:51;;;;;;;4.40;3.63;;;10.80;99.90;;;;;;5005481;28;20626;-67
2021/05/27 05:25:17;;;;;;;3.50;3.17;;;10.80;99.90;;;;;;5011347;28;20604;-68
2021/05/27 05:27:43;;;;;;;3.70;3.40;;;10.80;99.90;;;;;;5009375;28;20624;-66
2021/05/27 05:30:13;;;;;;;3.53;3.23;;;10.90;99.90;;;;;;5022923;28;21508;-67
2021/05/27 05:32:39;;;;;;;3.60;3.30;;;10.90;99.90;;;;;;5020981;23;21054;-70
2021/05/27 05:35:07;;;;;;;3.83;3.53;;;11.00;99.90;;;;;;5013905;28;21253;-71
2021/05/27 05:37:35;;;;;;;3.30;2.93;;;10.90;99.90;;;;;;5023093;28;20626;-71
2021/05/27 05:40:02;;;;;;;4.87;3.30;;;11.00;99.90;;;;;;4990480;28;20993;-71
2021/05/27 05:42:28;;;;;;;5.17;3.50;;;10.70;99.90;;;;;;4991924;28;20620;-71
2021/05/27 05:44:54;;;;;;;4.23;3.50;;;10.90;99.90;;;;;;4999390;28;21063;-71
2021/05/27 05:47:19;;;;;;;3.50;3.20;;;11.00;99.90;;;;;;4993231;28;20756;-70
2021/05/27 05:49:45;;;;;;;3.40;3.00;;;11.00;99.90;;;;;;5014128;28;20344;-70
2021/05/27 05:52:11;;;;;;;3.60;3.30;;;11.00;99.90;;;;;;5012161;28;20308;-70
2021/05/27 05:54:37;;;;;;;3.20;3.00;;;11.20;99.90;;;;;;5017528;28;20214;-70
2021/05/27 05:57:02;;;;;;;3.57;3.17;;;11.10;99.90;;;;;;5016043;28;20607;-69
2021/05/27 05:59:28;;;;;;;3.67;3.37;;;11.10;99.90;;;;;;5015609;28;20205;-70
2021/05/27 06:01:56;;;;;;;4.30;3.87;;;11.10;99.90;;;;;;5017151;28;20194;-70
2021/05/27 06:04:22;;;;;;;4.10;3.70;;;11.10;99.90;;;;;;5007814;28;20317;-70
2021/05/27 06:06:47;;;;;;;5.03;4.00;;;11.10;99.90;;;;;;5002122;28;20801;-70
2021/05/27 06:09:13;;;;;;;4.93;3.53;;;11.10;99.90;;;;;;4984409;28;20216;-70
2021/05/27 06:11:40;;;;;;;6.10;3.77;;;11.10;99.90;;;;;;4998208;28;20221;-69
2021/05/27 06:14:05;;;;;;;4.00;3.60;;;11.10;99.90;;;;;;5009962;28;20676;-70
2021/05/27 06:16:31;;;;;;;3.40;3.10;;;11.20;99.90;;;;;;5003988;28;20619;-70
2021/05/27 06:18:57;;;;;;;4.67;3.07;;;11.20;99.90;;;;;;5006840;28;20606;-70
2021/05/27 06:21:23;;;;;;;3.80;3.10;;;11.30;99.90;;;;;;4999404;28;20244;-69
2021/05/27 06:23:48;;;;;;;2.90;2.70;;;11.30;99.90;;;;;;4996507;28;20643;-70
2021/05/27 06:26:14;;;;;;;3.97;2.73;;;11.40;99.90;;;;;;5004477;28;20256;-70
2021/05/27 06:28:40;;;;;;;3.13;2.87;;;11.40;99.90;;;;;;5008016;28;20205;-70
2021/05/27 06:31:05;;;;;;;4.60;3.47;;;11.40;99.90;;;;;;5004140;28;20217;-69
2021/05/27 06:33:31;;;;;;;3.40;3.10;;;11.40;99.90;;;;;;4999474;28;21436;-70
2021/05/27 06:35:57;;;;;;;4.67;3.30;;;11.50;99.90;;;;;;5000244;28;20344;-70
2021/05/27 06:38:22;;;;;;;3.60;3.10;;;11.50;99.90;;;;;;5001244;28;20209;-70
2021/05/27 06:40:48;;;;;;;4.20;3.20;;;11.60;99.90;;;;;;5003441;28;21411;-70
2021/05/27 06:43:13;;;;;;;4.17;3.73;;;11.60;99.90;;;;;;4997478;28;21103;-69
2021/05/27 06:45:39;;;;;;;4.20;3.80;;;11.60;99.90;;;;;;4995351;28;20201;-69
2021/05/27 06:48:08;;;;;;;5.87;4.17;;;11.40;99.90;;;;;;5004142;28;20284;-70
2021/05/27 06:50:37;;;;;;;4.13;3.83;;;11.70;99.90;;;;;;5000022;28;20507;-70
2021/05/27 06:53:10;;;;;;;4.53;3.60;;;11.70;99.90;;;;;;4997830;28;20671;-70
2021/05/27 06:55:38;;;;;;;3.77;3.37;;;11.70;99.90;;;;;;4998084;28;20627;-69
2021/05/27 06:58:04;;;;;;;4.70;3.70;;;11.70;99.90;;;;;;4998706;28;20635;-70
2021/05/27 07:00:30;;;;;;;4.03;3.73;;;11.70;99.90;;;;;;5003893;28;20715;-70
2021/05/27 07:02:57;;;;;;;4.13;3.43;;;11.70;99.90;;;;;;4997895;28;20619;-70
2021/05/27 07:05:23;;;;;;;4.40;3.80;;;11.70;99.90;;;;;;5001346;28;21033;-70
2021/05/27 07:07:48;;;;;;;6.63;3.57;;;11.70;99.90;;;;;;4999427;28;20616;-69
2021/05/27 07:10:15;;;;;;;4.17;3.77;;;11.70;99.90;;;;;;5001691;28;21063;-69
2021/05/27 07:12:53;;;;;;;3.50;3.20;;;11.80;99.90;;;;;;4997936;28;20206;-70
2021/05/27 07:15:20;;;;;;;4.70;4.03;;;11.80;99.90;;;;;;5002309;28;20619;-70
2021/05/27 07:17:46;;;;;;;5.90;4.00;;;11.80;99.90;;;;;;4992599;28;20669;-71
2021/05/27 07:20:13;;;;;;;3.77;3.37;;;11.80;99.90;;;;;;5001664;28;20700;-69
2021/05/27 07:22:38;;;;;;;4.40;3.67;;;11.80;99.90;;;;;;5003248;28;20616;-69
2021/05/27 07:25:05;;;;;;;4.37;3.80;;;11.70;99.90;;;;;;4998545;28;20655;-70
2021/05/27 07:27:31;;;;;;;5.80;4.37;;;11.70;99.90;;;;;;5000006;28;20728;-68
2021/05/27 07:29:57;;;;;;;5.53;4.00;;;11.70;99.90;;;;;;5015491;28;20734;-69
2021/05/27 07:32:24;;;;;;;5.37;4.00;;;11.70;99.90;;;;;;5001814;28;20209;-69
2021/05/27 07:34:49;;;;;;;4.50;3.73;;;11.80;99.90;;;;;;5016253;28;20631;-69
2021/05/27 07:37:15;;;;;;;5.87;4.07;;;11.80;99.90;;;;;;5011952;28;20610;-69
2021/05/27 07:39:43;;;;;;;7.87;4.93;;;11.80;99.90;;;;;;5003426;28;20217;-68
2021/05/27 07:42:09;;;;;;;6.37;4.23;;;11.80;99.90;;;;;;5005074;28;20695;-69
2021/05/27 07:44:34;;;;;;;7.67;4.27;;;11.90;99.90;;;;;;5001894;28;20635;-69
2021/05/27 07:47:00;;;;;;;5.87;4.80;;;11.90;99.90;;;;;;5003936;28;20196;-69
2021/05/27 07:49:27;;;;;;;5.70;4.20;;;12.00;99.90;;;;;;5003599;28;20236;-69
2021/05/27 07:51:53;;;;;;;5.17;4.43;;;12.00;99.90;;;;;;4995608;28;20205;-69
2021/05/27 07:54:19;;;;;;;6.73;4.00;;;12.00;99.90;;;;;;4996277;28;20742;-68
2021/05/27 07:56:44;;;;;;;8.00;4.90;;;12.00;99.90;;;;;;5000921;28;20806;-69
2021/05/27 07:59:10;;;;;;;5.60;4.70;;;12.10;99.90;;;;;;4997110;28;20350;-69
2021/05/27 08:01:36;;;;;;;6.17;5.03;;;12.10;99.90;;;;;;4994498;28;20208;-68
2021/05/27 08:04:01;;;;;;;6.80;4.63;;;12.20;99.90;;;;;;4995816;28;20354;-69
2021/05/27 08:06:29;;;;;;;5.10;4.23;;;12.20;99.90;;;;;;4995848;28;23110;-70
2021/05/27 08:08:55;;;;;;;6.83;4.30;;;12.30;99.90;;;;;;5000017;28;20311;-69
2021/05/27 08:11:20;;;;;;;5.23;4.73;;;12.30;99.90;;;;;;4996948;28;21379;-69
2021/05/27 08:13:47;;;;;;;5.00;4.10;;;12.40;99.90;;;;;;4996621;28;20220;-69
2021/05/27 08:16:13;;;;;;;5.87;4.47;;;12.40;99.90;;;;;;4998923;28;20607;-69
2021/05/27 08:18:38;;;;;;;8.43;4.93;;;12.40;99.90;;;;;;4996932;28;20654;-70
2021/05/27 08:21:05;;;;;;;6.80;4.83;;;12.50;99.90;;;;;;4999002;28;21003;-69
2021/05/27 08:23:30;;;;;;;5.27;4.70;;;12.50;99.90;;;;;;4992600;28;20295;-69
2021/05/27 08:25:56;;;;;;;5.20;4.40;;;12.60;99.90;;;;;;4997862;28;21190;-69
2021/05/27 08:28:21;;;;;;;4.60;4.20;;;12.60;99.90;;;;;;4999202;28;20526;-69
2021/05/27 08:30:47;;;;;;;6.00;4.40;;;12.60;99.90;;;;;;4999427;28;20199;-70
2021/05/27 08:33:13;;;;;;;6.17;4.27;;;12.70;99.90;;;;;;5011760;28;20228;-69
2021/05/27 08:35:41;;;;;;;4.33;3.83;;;12.70;99.90;;;;;;5002763;28;20201;-70
2021/05/27 08:38:06;;;;;;;4.80;3.80;;;12.70;99.90;;;;;;4997226;28;20197;-70
2021/05/27 08:40:34;;;;;;;3.80;3.33;;;12.70;99.90;;;;;;5000523;28;21232;-68
2021/05/27 08:43:00;;;;;;;4.83;4.33;;;12.80;99.90;;;;;;4995693;28;20259;-69
2021/05/27 08:45:30;;;;;;;7.33;3.87;;;12.80;99.90;;;;;;4994431;28;21282;-69
2021/05/27 08:47:56;;;;;;;7.13;3.60;;;12.90;99.90;;;;;;4997355;28;20921;-71
2021/05/27 08:50:30;;;;;;;4.93;3.57;;;12.90;99.90;;;;;;4992843;28;21309;-70
2021/05/27 08:52:59;;;;;;;4.00;3.40;;;12.90;99.90;;;;;;4993710;28;20685;-69
2021/05/27 08:55:25;;;;;;;3.47;3.27;;;12.90;99.90;;;;;;4995281;28;20613;-69
2021/05/27 08:57:51;;;;;;;3.43;3.10;;;12.90;99.90;;;;;;5002125;28;21226;-69
2021/05/27 09:00:19;;;;;;;4.80;3.20;;;13.00;99.90;;;;;;5001835;28;20643;-70
2021/05/27 09:03:04;;;;;;;4.80;2.87;;;13.00;99.90;;;;;;5003601;28;20196;-70
2021/05/27 09:05:32;;;;;;;4.40;2.80;;;13.00;99.90;;;;;;4998529;28;20616;-69
2021/05/27 09:07:58;;;;;;;3.90;3.30;;;13.00;99.90;;;;;;4987738;28;20626;-69
2021/05/27 09:10:44;;;;;;;3.00;2.80;;;12.90;99.90;;;;;;4987555;28;20626;-69
2021/05/27 09:13:17;;;;;;;2.70;2.50;;;12.90;99.90;;;;;;4997599;28;20666;-70
2021/05/27 09:15:44;;;;;;;4.80;3.20;;;12.80;99.90;;;;;;5003371;28;20668;-69
2021/05/27 09:18:10;;;;;;;3.67;2.87;;;12.90;99.90;;;;;;5009054;28;20673;-70
2021/05/27 09:20:36;;;;;;;4.13;2.80;;;12.90;99.90;;;;;;4999498;28;20623;-69
2021/05/27 09:23:20;;;;;;;3.47;2.87;;;12.90;99.90;;;;;;5003379;28;21017;-69
2021/05/27 09:25:48;;;;;;;3.67;3.37;;;13.00;99.90;;;;;;4989584;28;20643;-68
2021/05/27 09:28:20;;;;;;;4.30;3.60;;;13.10;99.90;;;;;;5006915;28;21035;-70
2021/05/27 09:30:53;;;;;;;5.57;3.47;;;13.10;99.90;;;;;;4995659;28;21642;-69
2021/05/27 09:33:37;;;;;;;5.00;3.53;;;13.10;99.90;;;;;;4992209;28;20639;-69
2021/05/27 09:36:08;;;;;;;4.50;3.47;;;13.20;99.90;;;;;;4993500;28;20661;-70
2021/05/27 09:38:37;;;;;;;3.77;3.47;;;13.20;99.90;;;;;;4993482;28;20639;-69
2021/05/27 09:41:23;;;;;;;4.07;3.40;;;13.20;99.90;;;;;;4998972;28;20620;-69
2021/05/27 09:43:54;;;;;;;4.10;3.70;;;13.20;99.90;;;;;;4992988;28;20682;-69
2021/05/27 09:46:24;;;;;;;5.67;3.67;;;13.20;99.90;;;;;;5001693;28;21112;-70
2021/05/27 09:49:09;;;;;;;4.10;3.80;;;13.30;99.90;;;;;;5001758;28;20639;-70
2021/05/27 09:51:36;;;;;;;4.53;4.13;;;13.30;99.90;;;;;;4998827;28;21144;-69
2021/05/27 09:54:04;;;;;;;5.20;4.40;;;13.30;99.90;;;;;;4997957;28;20644;-69
2021/05/27 09:56:38;;;;;;;5.37;4.87;;;13.30;99.90;;;;;;5005171;28;20599;-68
2021/05/27 09:59:04;;;;;;;4.70;4.30;;;13.20;99.90;;;;;;4998697;28;20659;-68
2021/05/27 10:01:30;;;;;;;4.90;4.47;;;13.20;99.90;;;;;;5010625;28;20696;-69
2021/05/27 10:04:12;;;;;;;4.90;4.50;;;13.20;99.90;;;;;;4997144;28;20630;-69
2021/05/27 10:06:37;;;;;;;7.10;4.83;;;13.20;99.90;;;;;;5001130;28;21096;-69
2021/05/27 10:09:05;;;;;;;5.30;4.80;;;13.20;99.90;;;;;;5006413;28;20798;-68
2021/05/27 10:11:31;;;;;;;5.10;4.60;;;13.30;99.90;;;;;;5002596;28;20756;-69
2021/05/27 10:13:59;;;;;;;5.20;4.50;;;13.30;99.90;;;;;;5011668;28;20631;-70
2021/05/27 10:16:25;;;;;;;4.07;3.67;;;13.40;99.90;;;;;;5005237;28;20243;-71
2021/05/27 10:18:52;;;;;;;3.20;2.97;;;13.40;99.90;;;;;;5001096;28;20652;-69
2021/05/27 10:21:18;;;;;;;6.53;3.00;;;13.40;99.90;;;;;;4998181;28;20631;-68
2021/05/27 10:23:44;;;;;;;3.83;3.50;;;13.40;99.90;;;;;;5001423;28;20640;-69
2021/05/27 10:26:10;;;;;;;3.20;3.00;;;13.40;99.90;;;;;;5006034;28;20955;-70
2021/05/27 10:28:37;;;;;;;3.30;3.00;;;13.30;99.90;;;;;;5008510;28;20296;-72
2021/05/27 10:31:04;;;;;;;4.23;3.57;;;13.30;99.90;;;;;;4996312;28;21214;-69
2021/05/27 10:33:37;;;;;;;4.37;3.97;;;13.20;99.90;;;;;;4996779;28;23286;-69
2021/05/27 10:36:04;;;;;;;4.03;3.73;;;13.20;99.90;;;;;;5003973;28;20622;-68
2021/05/27 10:38:41;;;;;;;4.13;3.83;;;13.20;99.90;;;;;;5002304;28;21245;-69
2021/05/27 10:41:19;;;;;;;4.57;4.27;;;13.20;99.90;;;;;;5003127;28;20603;-71
2021/05/27 10:44:03;;;;;;;4.67;4.20;;;13.20;99.90;;;;;;4999894;28;20654;-70
2021/05/27 10:46:32;;;;;;;4.60;4.20;;;13.20;99.90;;;;;;4994773;28;20608;-69
2021/05/27 10:48:57;;;;;;;4.93;4.40;;;13.20;99.90;;;;;;5003587;28;21054;-70
2021/05/27 10:51:31;;;;;;;5.00;3.83;;;13.30;99.90;;;;;;5002720;28;20642;-70
2021/05/27 10:54:03;;;;;;;2.27;2.17;;;13.40;99.90;;;;;;4996925;28;20244;-71
2021/05/27 10:56:34;;;;;;;2.27;2.17;;;13.50;99.90;;;;;;5013058;28;20635;-69
2021/05/27 10:59:00;;;;;;;2.10;1.70;;;13.50;99.90;;;;;;5014848;28;21234;-70
2021/05/27 11:01:29;;;;;;;2.30;2.00;;;13.50;99.90;;;;;;5005895;28;20650;-68
2021/05/27 11:03:55;;;;;;;2.50;2.30;;;13.50;99.90;;;;;;5000859;28;20213;-69
2021/05/27 11:06:30;;;;;;;3.00;2.33;;;13.50;99.90;;;;;;4993193;28;20658;-70
2021/05/27 11:09:11;;;;;;;2.40;2.20;;;13.50;99.90;;;;;;4990102;28;20659;-68
2021/05/27 11:11:43;;;;;;;5.30;3.10;;;13.50;99.90;;;;;;4988354;28;20651;-71
2021/05/27 11:14:22;;;;;;;3.27;2.50;;;13.50;99.90;;;;;;4994940;28;20636;-71
2021/05/27 11:17:12;;;;;;;2.60;2.40;;;13.60;99.90;;;;;;4996176;28;20656;-70
2021/05/27 11:19:58;;;;;;;3.03;2.83;;;13.70;99.90;;;;;;4981583;28;20646;-70
2021/05/27 11:22:36;;;;;;;3.20;3.00;;;13.80;99.90;;;;;;5002040;28;20646;-69
2021/05/27 11:25:08;;;;;;;3.57;3.30;;;13.90;99.90;;;;;;4994218;28;20673;-71
2021/05/27 11:27:38;;;;;;;3.30;3.00;;;14.00;99.90;;;;;;4991200;28;20683;-71
2021/05/27 11:30:24;;;;;;;3.10;2.90;;;14.00;99.90;;;;;;4991772;28;20691;-69
2021/05/27 11:33:00;;;;;;;2.60;2.40;;;14.00;99.90;;;;;;4995314;28;20661;-69
2021/05/27 11:35:30;;;;;;;2.30;2.20;;;14.00;99.90;;;;;;5002326;28;20962;-71
2021/05/27 11:37:57;;;;;;;2.60;2.40;;;13.90;99.90;;;;;;4999698;28;20619;-69
2021/05/27 11:40:29;;;;;;;2.57;2.37;;;13.80;99.90;;;;;;5000503;28;20648;-69
2021/05/27 11:42:55;;;;;;;3.63;3.00;;;13.80;99.90;;;;;;5000339;28;21131;-69
2021/05/27 11:45:24;;;;;;;4.33;3.37;;;13.90;99.90;;;;;;5002177;28;20955;-68
2021/05/27 11:48:10;;;;;;;3.17;2.63;;;13.90;99.90;;;;;;4991917;28;21452;-69
2021/05/27 11:50:35;;;;;;;2.60;2.40;;;13.80;99.90;;;;;;4996813;28;20612;-70
2021/05/27 11:53:01;;;;;;;2.90;2.70;;;13.80;99.90;;;;;;5006845;28;21210;-70
2021/05/27 11:55:30;;;;;;;3.23;3.03;;;13.80;99.90;;;;;;4997902;28;20193;-69
2021/05/27 11:57:56;;;;;;;3.03;2.77;;;13.80;99.90;;;;;;5002575;28;20620;-69
2021/05/27 12:00:22;;;;;;;2.70;2.50;;;13.80;99.90;;;;;;5006997;28;21032;-69
2021/05/27 12:02:50;;;;;;;3.23;2.93;;;13.80;99.90;;;;;;5003568;28;21207;-70
2021/05/27 12:05:26;;;;;;;3.07;2.80;;;13.80;99.90;;;;;;5000348;28;22380;-70
2021/05/27 12:07:57;;;;;;;3.20;3.00;;;13.80;99.90;;;;;;5001500;28;20647;-69
2021/05/27 12:10:27;;;;;;;3.50;2.93;;;13.80;99.90;;;;;;4998297;28;20620;-68
2021/05/27 12:12:53;;;;;;;3.13;2.93;;;13.80;99.90;;;;;;4996090;28;20651;-68
2021/05/27 12:15:22;;;;;;;3.97;3.67;;;13.90;99.90;;;;;;4995459;28;21158;-68
2021/05/27 12:17:51;;;;;;;4.00;3.70;;;14.00;99.90;;;;;;5001134;28;20192;-69
2021/05/27 12:20:35;;;;;;;3.57;3.23;;;14.10;99.90;;;;;;4995282;28;20657;-69
2021/05/27 12:23:10;;;;;;;4.47;3.20;;;14.20;99.90;;;;;;4997211;28;20611;-70
2021/05/27 12:25:42;;;;;;;3.13;2.93;;;14.30;99.90;;;;;;4999250;28;22898;-68
2021/05/27 12:28:14;;;;;;;3.17;2.87;;;14.30;99.90;;;;;;5006658;28;20619;-68
2021/05/27 12:30:43;;;;;;;3.03;2.80;;;14.40;99.90;;;;;;4998584;28;20712;-69
2021/05/27 12:33:15;;;;;;;3.03;2.73;;;14.40;99.90;;;;;;5004193;28;20647;-69
2021/05/27 12:35:41;;;;;;;2.70;2.50;;;14.30;99.90;;;;;;5012946;28;20642;-70
2021/05/27 12:38:16;;;;;;;2.47;2.30;;;14.30;99.90;;;;;;5008586;28;21131;-70
2021/05/27 12:40:46;;;;;;;5.30;2.77;;;14.30;99.90;;;;;;5005582;28;20196;-70
2021/05/27 12:43:23;;;;;;;2.40;2.23;;;14.30;99.90;;;;;;5023448;28;20628;-69
2021/05/27 12:45:50;;;;;;;2.50;2.30;;;14.20;99.90;;;;;;5035054;28;21064;-69
2021/05/27 12:48:23;;;;;;;2.13;1.83;;;14.20;99.90;;;;;;5018709;28;20618;-68
2021/05/27 12:51:04;;;;;;;1.90;1.80;;;14.20;99.90;;;;;;5011196;28;20618;-69
2021/05/27 12:53:41;;;;;;;2.10;1.90;;;14.20;99.90;;;;;;5010138;28;21162;-67
2021/05/27 12:56:20;;;;;;;5.80;5.40;;;14.20;99.90;;;;;;5005603;28;20611;-67
2021/05/27 12:59:06;;;;;;;3.10;2.60;;;14.20;99.90;;;;;;5012772;28;20646;-69
2021/05/27 13:01:33;;;;;;;2.13;1.90;;;14.20;99.90;;;;;;5015984;28;20614;-67
2021/05/27 13:04:00;;;;;;;2.87;2.67;;;14.30;99.90;;;;;;5006276;28;20672;-66
2021/05/27 13:06:37;;;;;;;2.63;2.50;;;14.30;99.90;;;;;;5010963;28;20717;-67
2021/05/27 13:09:10;;;;;;;3.70;3.50;;;14.40;99.90;;;;;;4999926;28;21017;-69